Airfield :
LOGIN :

Register | Disclaimer

   EN    FR    IT 

 










Legend :    VFR   Marginal VFR   IFR   Intensive IFR   Very Intensive IFR
Visi :
Ceiling :
>= 8 km
>= 3000ft
5 to 8 km
1000 to 3000 ft
1500m to 5 km
500 to 1000 ft
800 to 1500m
200 to 500 ft
< 800m
< 200 ft
Symbols :   Thunderstorms  Fog  Heavy snow  Heavy precipitations  Wind > 20 kt
SIGMETs :     Misc.  Thunderstorms  Icing  Turbulence  Mountain Waves  Volcanic Ashes







- Airport Elevation : 13 ft
- IATA code : GOA


LIMJ - Genoa Cristoforo Colombo

CURRENT METAR :
  • 142050Z 03005KT CAVOK 23/20 Q1012

EXPIRED METARs :
  • 142020Z 03004KT 350V050 CAVOK 23/20 Q1012
  • 141950Z 02004KT 360V060 CAVOK 23/20 Q1012
  • 141920Z 03005KT 360V070 CAVOK 24/20 Q1012
  • 141850Z 02002KT 9999 FEW025 25/20 Q1012
  • 141820Z 28002KT 9999 FEW025 25/20 Q1012

TAF TAF LIMJ
Valid from the 14 at 18:00 until the 15 at 18:00 UTC


141700Z 1418/1518 VRB05KT 9999 BKN025
PROB30
TEMPO 1418/1421 TSRA
No reported NOTAMs for that airfield.
2 SIGMETs reported for the Milano FIR (LIMM) :
 
Embedded thunderstorms
LIMM SIGMET 8 VALID 142010/142200 LIIP
LIMM MILANO FIR EMBD TS FCST SE OF LINE N4652 E01224 - N4316 E00925 TOP FL390 MOV E NC=
Severe turbulence
LIMM SIGMET 7 VALID 142000/142200 LIIP
LIMM MILANO FIR SEV TURB FCST W OF LINE N4706 E01140 - N4331 E01111 FL240/380 MOV E NC=



MET'MAP, your aeronautical weather chart ! - Copyright ORBIFLY December 2007 - Disclaimer

ORBIFLY MET'MAP TEAM :

Programming & Development : Alexandra Zaïnal
Concept & Development : Baudouin d'Aumeries
Co-Development & Prog : Marc-Olivier Méhu
Technical & hardware support : Manuel Goepfert

Contact : metmap@orbifly.com




SOURCES & CREDITS :

   NOAA